createdAt,value
2019-02-21T00:01:05.028Z,45.87
2019-02-21T00:03:32.192Z,46.00
2019-02-21T00:05:59.332Z,47.97
2019-02-21T00:08:26.431Z,45.00
2019-02-21T00:10:53.568Z,42.27
2019-02-21T00:13:20.712Z,44.77
2019-02-21T00:15:47.889Z,42.43
2019-02-21T00:18:15.033Z,42.33
2019-02-21T00:20:42.371Z,43.37
2019-02-21T00:23:09.468Z,43.47
2019-02-21T00:25:36.548Z,46.00
2019-02-21T00:28:03.670Z,45.27
2019-02-21T00:30:35.150Z,45.57
2019-02-21T00:32:59.789Z,45.83
2019-02-21T00:35:26.968Z,44.73
2019-02-21T00:37:54.128Z,47.03
2019-02-21T00:40:22.210Z,45.73
2019-02-21T00:42:49.330Z,43.90
2019-02-21T00:45:16.449Z,44.07
2019-02-21T00:47:43.588Z,44.63
2019-02-21T00:50:10.795Z,46.20
2019-02-21T00:52:37.869Z,44.73
2019-02-21T00:55:05.776Z,43.53
2019-02-21T00:57:32.849Z,45.17
2019-02-21T00:59:59.909Z,44.87
2019-02-21T01:02:27.131Z,42.40
2019-02-21T01:04:54.308Z,43.97
2019-02-21T01:07:21.429Z,46.53
2019-02-21T01:09:48.589Z,44.60
2019-02-21T01:12:16.168Z,42.27
2019-02-21T01:14:43.209Z,40.37
2019-02-21T01:17:10.391Z,44.93
2019-02-21T01:19:37.488Z,40.90
2019-02-21T01:22:04.953Z,40.13
2019-02-21T01:24:32.169Z,39.20
2019-02-21T01:26:59.330Z,42.37
2019-02-21T01:29:26.388Z,42.30
2019-02-21T01:31:53.508Z,40.73
2019-02-21T01:34:20.649Z,42.33
2019-02-21T01:36:47.810Z,41.60
2019-02-21T01:39:14.909Z,43.73
2019-02-21T01:41:42.111Z,46.43
2019-02-21T01:44:09.431Z,43.93
2019-02-21T01:46:36.548Z,47.03
2019-02-21T01:49:03.689Z,47.33
2019-02-21T01:51:30.909Z,46.33
2019-02-21T01:53:58.049Z,44.30
2019-02-21T01:56:25.152Z,45.73
2019-02-21T01:58:52.209Z,43.40
2019-02-21T02:01:19.409Z,44.37
2019-02-21T02:03:46.549Z,44.63
2019-02-21T02:06:13.730Z,44.63
2019-02-21T02:08:40.850Z,43.30
2019-02-21T02:11:08.036Z,42.67
2019-02-21T02:13:35.189Z,42.50
2019-02-21T02:16:02.343Z,40.77
2019-02-21T02:18:29.428Z,42.53
2019-02-21T02:20:56.494Z,42.07
2019-02-21T02:23:23.614Z,43.03
2019-02-21T02:25:50.730Z,43.70
2019-02-21T02:28:17.849Z,41.57
2019-02-21T02:30:44.911Z,38.77
2019-02-21T02:33:11.990Z,36.97
2019-02-21T02:35:39.133Z,37.97
2019-02-21T02:38:06.269Z,40.97
2019-02-21T02:40:33.480Z,39.30
2019-02-21T02:43:00.971Z,40.27
2019-02-21T02:45:28.048Z,39.23
2019-02-21T02:47:55.188Z,38.80
2019-02-21T02:50:22.370Z,40.53
2019-02-21T02:52:49.592Z,39.20
2019-02-21T02:55:16.688Z,39.50
2019-02-21T02:57:43.849Z,39.93
2019-02-21T03:00:13.869Z,40.20
2019-02-21T03:02:41.049Z,38.50
2019-02-21T03:05:08.229Z,40.43
2019-02-21T03:07:35.330Z,39.57
2019-02-21T03:10:04.517Z,41.80
2019-02-21T03:12:31.811Z,41.87
2019-02-21T03:14:58.889Z,41.43
2019-02-21T03:17:26.048Z,41.07
2019-02-21T03:19:53.096Z,41.63
2019-02-21T03:22:20.188Z,42.23
2019-02-21T03:24:47.309Z,42.70
2019-02-21T03:27:14.448Z,42.57
2019-02-21T03:29:41.685Z,41.90
2019-02-21T03:32:08.829Z,42.50
2019-02-21T03:34:36.049Z,41.17
2019-02-21T03:37:03.131Z,41.73
2019-02-21T03:39:30.291Z,42.27
2019-02-21T03:41:57.415Z,43.03
2019-02-21T03:44:24.573Z,41.53
2019-02-21T03:46:51.609Z,41.33
2019-02-21T03:49:18.750Z,43.30
2019-02-21T03:51:45.808Z,42.13
2019-02-21T03:54:12.953Z,42.93
2019-02-21T03:56:40.249Z,40.53
2019-02-21T03:59:07.368Z,38.90
2019-02-21T04:01:34.459Z,41.23
2019-02-21T04:04:01.549Z,42.23
2019-02-21T04:06:28.650Z,39.57
2019-02-21T04:08:55.749Z,38.90
2019-02-21T04:11:22.840Z,39.20
2019-02-21T04:13:49.989Z,40.23
2019-02-21T04:16:17.089Z,36.13
2019-02-21T04:18:44.209Z,35.20
2019-02-21T04:21:11.310Z,39.40
2019-02-21T04:23:38.441Z,36.70
2019-02-21T04:26:05.551Z,37.87
2019-02-21T04:28:32.729Z,39.70
2019-02-21T04:30:59.848Z,39.53
2019-02-21T04:33:26.988Z,42.93
2019-02-21T04:35:54.429Z,42.50
2019-02-21T04:38:21.532Z,40.90
2019-02-21T04:40:48.689Z,42.77
2019-02-21T04:43:15.816Z,44.57
2019-02-21T04:45:42.929Z,46.03
2019-02-21T04:48:10.371Z,42.93
2019-02-21T04:50:37.592Z,42.97
2019-02-21T04:53:04.800Z,44.13
2019-02-21T04:55:31.893Z,42.53
2019-02-21T04:57:58.990Z,40.20
2019-02-21T05:00:26.242Z,45.60
2019-02-21T05:02:53.428Z,44.10
2019-02-21T05:05:20.550Z,43.93
2019-02-21T05:07:47.690Z,47.57
2019-02-21T05:10:14.750Z,40.97
2019-02-21T05:12:41.856Z,40.30
2019-02-21T05:15:09.006Z,41.43
2019-02-21T05:17:36.731Z,44.43
2019-02-21T05:20:05.268Z,43.30
2019-02-21T05:22:32.389Z,43.73
2019-02-21T05:24:59.569Z,43.30
2019-02-21T05:27:28.429Z,44.40
2019-02-21T05:29:55.589Z,43.33
2019-02-21T05:32:41.370Z,44.00
2019-02-21T05:35:16.249Z,44.93
2019-02-21T05:37:48.269Z,46.23
2019-02-21T05:40:22.968Z,43.87
2019-02-21T05:42:52.190Z,45.33
2019-02-21T05:45:27.349Z,44.50
2019-02-21T05:48:01.954Z,45.17
2019-02-21T05:50:47.790Z,43.83
2019-02-21T05:53:25.529Z,43.20
2019-02-21T05:56:06.549Z,35.37
2019-02-21T05:58:35.555Z,37.70
2019-02-21T06:01:13.228Z,40.40
2019-02-21T06:03:45.068Z,41.23
2019-02-21T06:06:19.940Z,45.20
2019-02-21T06:09:17.429Z,46.10
2019-02-21T06:11:56.168Z,42.17
2019-02-21T06:14:42.009Z,39.20
2019-02-21T06:17:29.452Z,40.30
2019-02-21T06:20:01.212Z,41.17
2019-02-21T06:22:32.813Z,40.43
2019-02-21T06:27:59.649Z,43.53
2019-02-21T06:30:31.508Z,44.63
2019-02-21T06:33:05.008Z,45.57
2019-02-21T06:35:27.608Z,45.33
2019-02-21T06:37:54.729Z,47.03
2019-02-21T06:40:21.771Z,46.90
2019-02-21T06:42:48.989Z,46.20
2019-02-21T06:45:18.211Z,46.33
2019-02-21T06:47:45.173Z,44.30
2019-02-21T06:50:14.366Z,45.23
2019-02-21T06:52:41.550Z,45.33
2019-02-21T06:55:08.649Z,47.17
2019-02-21T06:57:35.808Z,44.37
2019-02-21T07:00:04.628Z,42.60
2019-02-21T07:02:31.781Z,42.67
2019-02-21T07:04:58.930Z,41.50
2019-02-21T07:07:26.202Z,43.80
2019-02-21T07:09:53.568Z,41.30
2019-02-21T07:12:20.648Z,41.23
2019-02-21T07:14:47.830Z,41.50
2019-02-21T07:17:14.909Z,42.30
2019-02-21T07:19:42.027Z,41.63
2019-02-21T07:22:09.169Z,41.50
2019-02-21T07:24:38.511Z,41.53
2019-02-21T07:27:06.148Z,41.50
2019-02-21T07:29:33.368Z,41.37
2019-02-21T07:32:00.528Z,42.73
2019-02-21T07:34:30.245Z,43.20
2019-02-21T07:36:56.643Z,43.73
2019-02-21T07:39:23.838Z,43.23
2019-02-21T07:41:50.974Z,41.07
2019-02-21T07:44:18.083Z,41.00
2019-02-21T07:46:46.363Z,41.17
2019-02-21T07:49:13.764Z,40.43
2019-02-21T07:51:41.547Z,40.60
2019-02-21T07:54:09.002Z,40.37
2019-02-21T07:56:41.944Z,40.00
2019-02-21T07:59:05.243Z,41.20
2019-02-21T08:01:32.345Z,40.03
2019-02-21T08:03:59.622Z,40.27
2019-02-21T08:06:26.926Z,40.07
2019-02-21T08:08:54.024Z,40.50
2019-02-21T08:11:21.204Z,38.50
2019-02-21T08:13:48.415Z,40.20
2019-02-21T08:16:15.582Z,38.27
2019-02-21T08:18:42.663Z,38.63
2019-02-21T08:21:09.804Z,38.40
2019-02-21T08:23:36.906Z,39.40
2019-02-21T08:26:04.023Z,38.23
2019-02-21T08:28:31.103Z,37.83
2019-02-21T08:30:58.319Z,39.00
2019-02-21T08:33:55.465Z,38.40
2019-02-21T08:36:14.363Z,38.23
2019-02-21T08:38:41.464Z,35.83
2019-02-21T08:41:08.604Z,37.17
2019-02-21T08:43:37.313Z,35.13
2019-02-21T08:46:04.642Z,34.80
2019-02-21T08:48:31.648Z,33.37
2019-02-21T08:50:58.885Z,36.03
2019-02-21T08:53:28.000Z,37.60
2019-02-21T08:55:55.990Z,36.17
2019-02-21T08:58:23.270Z,36.47
2019-02-21T09:00:50.430Z,37.63
2019-02-21T09:03:18.167Z,36.33
2019-02-21T09:05:45.509Z,36.23
2019-02-21T09:08:12.649Z,35.63
2019-02-21T09:10:39.790Z,35.83
2019-02-21T09:13:06.890Z,35.40
2019-02-21T09:15:34.090Z,36.10
2019-02-21T09:18:01.149Z,35.50
2019-02-21T09:20:28.229Z,37.13
2019-02-21T09:22:56.097Z,35.97
2019-02-21T09:25:23.130Z,36.37
2019-02-21T09:27:50.229Z,37.00
2019-02-21T09:30:17.958Z,36.63
2019-02-21T09:32:45.050Z,35.43
2019-02-21T09:35:12.210Z,35.13
2019-02-21T09:37:39.310Z,36.40
2019-02-21T09:40:10.856Z,35.27
2019-02-21T09:42:38.190Z,33.77
2019-02-21T09:45:14.942Z,33.87
2019-02-21T09:47:42.170Z,33.47
2019-02-21T09:50:10.511Z,33.87
2019-02-21T09:52:37.734Z,34.10
2019-02-21T09:55:11.950Z,29.87
2019-02-21T09:57:39.070Z,29.97
2019-02-21T10:00:16.346Z,29.90
2019-02-21T10:02:43.390Z,30.60
2019-02-21T10:05:10.812Z,28.63
2019-02-21T10:07:37.906Z,33.37
2019-02-21T10:10:12.445Z,28.70
2019-02-21T10:12:39.646Z,28.03
2019-02-21T10:15:10.689Z,27.97
2019-02-21T10:17:37.853Z,30.80
2019-02-21T10:20:24.767Z,29.27
2019-02-21T10:22:51.857Z,28.70
2019-02-21T10:25:26.685Z,30.63
2019-02-21T10:27:53.745Z,30.33
2019-02-21T10:30:22.535Z,31.23
2019-02-21T10:32:49.786Z,29.57
2019-02-21T10:35:16.906Z,30.33
2019-02-21T10:37:44.089Z,31.20
2019-02-21T10:40:13.666Z,32.03
2019-02-21T10:42:40.786Z,31.87
2019-02-21T10:45:11.969Z,31.13
2019-02-21T10:47:39.126Z,30.03
2019-02-21T10:50:14.002Z,30.73
2019-02-21T10:52:41.663Z,30.90
2019-02-21T10:55:09.886Z,31.13
2019-02-21T10:57:37.021Z,31.07
2019-02-21T11:00:21.966Z,30.97
2019-02-21T11:02:49.206Z,27.73
2019-02-21T11:05:16.368Z,29.50
2019-02-21T11:07:43.590Z,28.73
2019-02-21T11:10:14.529Z,29.97
2019-02-21T11:12:41.669Z,29.80
2019-02-21T11:15:18.209Z,29.10
2019-02-21T11:17:45.409Z,28.80
2019-02-21T11:20:16.228Z,28.10
2019-02-21T11:22:43.392Z,26.93
2019-02-21T11:25:11.229Z,27.33
2019-02-21T11:27:38.329Z,29.23
2019-02-21T11:30:10.568Z,26.60
2019-02-21T11:32:37.687Z,26.40
2019-02-21T11:35:06.994Z,26.30
2019-02-21T11:37:42.944Z,26.43
2019-02-21T11:40:06.329Z,26.90
2019-02-21T11:42:33.452Z,26.87
2019-02-21T11:45:00.569Z,25.97
2019-02-21T11:47:27.669Z,24.97
2019-02-21T11:49:54.834Z,25.57
2019-02-21T11:52:21.978Z,23.43
2019-02-21T11:54:49.149Z,24.57
2019-02-21T11:57:16.249Z,22.77
2019-02-21T11:59:43.368Z,22.83
2019-02-21T12:02:10.491Z,23.97
2019-02-21T12:04:37.690Z,23.33
2019-02-21T12:07:04.913Z,21.87
2019-02-21T12:09:32.020Z,22.53
2019-02-21T12:11:59.161Z,22.20
2019-02-21T12:14:26.321Z,23.20
2019-02-21T12:16:53.397Z,22.87
2019-02-21T12:19:20.537Z,22.53
2019-02-21T12:21:58.354Z,22.57
2019-02-21T12:24:16.723Z,22.23
2019-02-21T12:26:43.878Z,21.83
2019-02-21T12:29:10.997Z,22.47
2019-02-21T12:31:38.539Z,22.90
2019-02-21T12:34:05.638Z,23.00
2019-02-21T12:36:32.718Z,23.07
2019-02-21T12:38:59.857Z,22.73
2019-02-21T12:41:26.978Z,22.23
2019-02-21T12:43:54.098Z,21.50
2019-02-21T12:46:21.198Z,21.33
2019-02-21T12:48:48.361Z,22.30
2019-02-21T12:51:15.718Z,20.93
2019-02-21T12:56:20.817Z,21.93
2019-02-21T12:58:47.999Z,22.70
2019-02-21T13:01:15.101Z,22.47
2019-02-21T13:03:42.215Z,22.03
2019-02-21T13:06:09.299Z,21.53
2019-02-21T13:08:36.478Z,22.80
2019-02-21T13:11:03.597Z,21.80
2019-02-21T13:13:30.740Z,22.43
2019-02-21T13:15:57.878Z,22.50
2019-02-21T13:18:24.980Z,20.63
2019-02-21T13:20:52.079Z,22.57
2019-02-21T13:23:19.258Z,22.27
2019-02-21T13:25:46.417Z,22.30
2019-02-21T13:28:13.579Z,22.93
2019-02-21T13:30:40.941Z,21.70
2019-02-21T13:33:08.160Z,20.37
2019-02-21T13:35:35.639Z,21.00
2019-02-21T13:38:02.799Z,20.33
2019-02-21T13:40:29.918Z,20.23
2019-02-21T13:42:57.118Z,20.27
2019-02-21T13:45:24.179Z,19.07
2019-02-21T13:47:51.298Z,19.27
2019-02-21T13:50:19.616Z,18.90
2019-02-21T13:52:47.039Z,18.77
2019-02-21T13:55:14.140Z,18.83
2019-02-21T13:57:41.398Z,21.40
2019-02-21T14:00:23.278Z,19.80
2019-02-21T14:02:50.459Z,19.83
2019-02-21T14:05:17.619Z,18.97
2019-02-21T14:07:44.698Z,18.87
2019-02-21T14:10:13.472Z,19.93
2019-02-21T14:12:40.802Z,19.60
2019-02-21T14:15:15.001Z,18.90
2019-02-21T14:17:42.162Z,18.83
2019-02-21T14:20:09.587Z,19.47
2019-02-21T14:22:36.702Z,20.27
2019-02-21T14:25:07.784Z,19.97
2019-02-21T14:27:34.843Z,19.90
2019-02-21T14:30:03.307Z,20.63
2019-02-21T14:32:30.403Z,20.17
2019-02-21T14:34:57.537Z,19.03
2019-02-21T14:37:24.583Z,19.93
2019-02-21T14:39:51.669Z,20.47
2019-02-21T14:42:18.734Z,21.90
2019-02-21T14:44:45.841Z,19.83
2019-02-21T14:47:12.942Z,21.60
2019-02-21T14:49:40.070Z,20.83
2019-02-21T14:52:07.123Z,21.40
2019-02-21T14:54:34.242Z,21.67
2019-02-21T14:57:01.624Z,21.50
2019-02-21T14:59:28.745Z,21.67
2019-02-21T15:01:55.803Z,21.33
2019-02-21T15:04:22.861Z,21.57
2019-02-21T15:06:49.879Z,21.50
2019-02-21T15:09:16.928Z,21.77
2019-02-21T15:11:44.002Z,22.03
2019-02-21T15:14:11.062Z,21.97
2019-02-21T15:16:38.227Z,20.77
2019-02-21T15:19:05.225Z,21.73
2019-02-21T15:21:32.355Z,22.20
2019-02-21T15:23:59.451Z,21.70
2019-02-21T15:26:27.152Z,21.80
2019-02-21T15:28:54.378Z,22.83
2019-02-21T15:31:21.571Z,23.33
2019-02-21T15:33:48.656Z,23.27
2019-02-21T15:36:16.489Z,23.17
2019-02-21T15:38:43.913Z,23.23
2019-02-21T15:41:11.032Z,23.23
2019-02-21T15:43:38.107Z,24.00
2019-02-21T15:46:07.327Z,24.10
2019-02-21T15:48:34.257Z,24.47
2019-02-21T15:51:01.372Z,24.27
2019-02-21T15:53:28.474Z,23.50
2019-02-21T15:55:55.611Z,23.07
2019-02-21T15:58:22.627Z,23.40
2019-02-21T16:00:49.952Z,25.07
2019-02-21T16:03:16.992Z,25.10
2019-02-21T16:05:44.071Z,25.50
2019-02-21T16:08:11.272Z,24.93
2019-02-21T16:10:39.847Z,23.87
2019-02-21T16:13:07.270Z,23.17
2019-02-21T16:15:35.352Z,23.33
2019-02-21T16:18:02.479Z,24.57
2019-02-21T16:20:29.561Z,23.67
2019-02-21T16:22:56.701Z,23.50
2019-02-21T16:25:32.098Z,26.20
2019-02-21T16:27:59.253Z,24.10
2019-02-21T16:30:26.371Z,24.83
2019-02-21T16:32:53.814Z,26.23
2019-02-21T16:35:21.006Z,24.67
2019-02-21T16:37:48.090Z,25.80
2019-02-21T16:40:17.511Z,25.80
2019-02-21T16:42:44.736Z,25.60
2019-02-21T16:45:19.393Z,25.47
2019-02-21T16:47:46.536Z,25.23
2019-02-21T16:50:14.073Z,25.03
2019-02-21T16:52:41.298Z,26.63
2019-02-21T16:55:15.800Z,26.17
2019-02-21T16:57:42.964Z,24.30
2019-02-21T17:00:15.341Z,25.17
2019-02-21T17:02:42.375Z,25.87
2019-02-21T17:05:09.715Z,25.97
2019-02-21T17:07:36.795Z,26.17
2019-02-21T17:10:07.955Z,26.50
2019-02-21T17:12:36.970Z,26.60
2019-02-21T17:15:07.837Z,25.57
2019-02-21T17:17:34.983Z,26.03
2019-02-21T17:20:02.333Z,27.60
2019-02-21T17:22:29.495Z,26.27
2019-02-21T17:24:56.612Z,26.47
2019-02-21T17:27:23.845Z,25.53
2019-02-21T17:29:51.000Z,27.33
2019-02-21T17:32:18.081Z,27.27
2019-02-21T17:34:45.161Z,27.13
2019-02-21T17:37:12.271Z,27.90
2019-02-21T17:39:39.371Z,28.47
2019-02-21T17:42:06.811Z,29.87
2019-02-21T17:44:33.952Z,29.13
2019-02-21T17:47:01.171Z,29.67
2019-02-21T17:49:28.230Z,29.97
2019-02-21T17:51:55.331Z,29.37
2019-02-21T17:54:24.850Z,28.50
2019-02-21T17:56:51.554Z,29.37
2019-02-21T17:59:18.658Z,28.77
2019-02-21T18:01:45.798Z,28.57
2019-02-21T18:04:12.931Z,29.43
2019-02-21T18:06:40.092Z,29.27
2019-02-21T18:09:07.174Z,29.87
2019-02-21T18:11:34.251Z,29.60
2019-02-21T18:14:01.350Z,30.23
2019-02-21T18:16:28.491Z,30.13
2019-02-21T18:18:55.552Z,30.70
2019-02-21T18:21:22.734Z,30.43
2019-02-21T18:23:49.831Z,32.17
2019-02-21T18:26:17.171Z,31.37
2019-02-21T18:28:44.710Z,31.10
2019-02-21T18:31:11.811Z,31.20
2019-02-21T18:33:38.971Z,32.17
2019-02-21T18:36:06.030Z,33.07
2019-02-21T18:38:33.171Z,31.77
2019-02-21T18:41:00.411Z,30.63
2019-02-21T18:43:27.511Z,32.37
2019-02-21T18:45:54.569Z,31.73
2019-02-21T18:48:21.680Z,31.73
2019-02-21T18:50:48.916Z,30.37
2019-02-21T18:53:16.070Z,30.17
2019-02-21T18:55:43.191Z,30.57
2019-02-21T18:58:10.411Z,32.07
2019-02-21T19:00:37.556Z,34.00
2019-02-21T19:03:04.812Z,35.40
2019-02-21T19:05:36.041Z,34.80
2019-02-21T19:08:05.490Z,34.07
2019-02-21T19:10:29.970Z,34.97
2019-02-21T19:12:57.091Z,36.17
2019-02-21T19:15:25.771Z,33.63
2019-02-21T19:17:52.869Z,33.37
2019-02-21T19:20:21.179Z,34.70
2019-02-21T19:22:48.953Z,33.43
2019-02-21T19:25:16.191Z,31.60
2019-02-21T19:27:43.517Z,33.60
2019-02-21T19:30:43.411Z,32.33
2019-02-21T19:33:10.627Z,33.27
2019-02-21T19:35:37.710Z,34.67
2019-02-21T19:38:10.378Z,33.83
2019-02-21T19:40:34.037Z,34.47
2019-02-21T19:43:01.238Z,34.57
2019-02-21T19:45:28.513Z,34.47
2019-02-21T19:47:55.611Z,33.93
2019-02-21T19:50:22.831Z,34.07
2019-02-21T19:52:50.111Z,33.03
2019-02-21T19:55:17.371Z,34.03
2019-02-21T19:57:44.490Z,33.67
2019-02-21T20:00:20.190Z,33.23
2019-02-21T20:02:47.394Z,33.13
2019-02-21T20:05:14.751Z,32.67
2019-02-21T20:07:41.910Z,32.43
2019-02-21T20:10:09.091Z,32.33
2019-02-21T20:12:36.271Z,32.30
2019-02-21T20:15:06.951Z,32.70
2019-02-21T20:17:34.011Z,32.10
2019-02-21T20:20:01.122Z,31.57
2019-02-21T20:22:28.353Z,31.70
2019-02-21T20:24:55.730Z,29.57
2019-02-21T20:27:22.871Z,30.47
2019-02-21T20:29:49.971Z,28.97
2019-02-21T20:32:17.113Z,29.97
2019-02-21T20:34:44.252Z,31.33
2019-02-21T20:37:11.411Z,31.03
2019-02-21T20:39:38.528Z,31.37
2019-02-21T20:42:05.810Z,29.90
2019-02-21T20:44:33.038Z,30.07
2019-02-21T20:47:00.291Z,30.27
2019-02-21T20:49:27.370Z,30.00
2019-02-21T20:51:54.551Z,29.77
2019-02-21T20:54:21.631Z,29.97
2019-02-21T20:56:48.830Z,29.03
2019-02-21T20:59:15.892Z,30.47
2019-02-21T21:01:43.091Z,29.53
2019-02-21T21:04:10.214Z,29.33
2019-02-21T21:06:37.310Z,28.07
2019-02-21T21:09:04.894Z,29.23
2019-02-21T21:11:31.970Z,29.90
2019-02-21T21:13:59.170Z,27.60
2019-02-21T21:16:26.252Z,29.03
2019-02-21T21:18:53.390Z,28.80
2019-02-21T21:21:20.731Z,28.80
2019-02-21T21:23:47.831Z,28.63
2019-02-21T21:26:14.951Z,28.73
2019-02-21T21:28:42.210Z,28.73
2019-02-21T21:31:09.316Z,28.17
2019-02-21T21:33:36.471Z,28.53
2019-02-21T21:36:03.534Z,29.33
2019-02-21T21:38:30.654Z,28.90
2019-02-21T21:40:57.750Z,29.93
2019-02-21T21:43:24.937Z,28.77
2019-02-21T21:45:52.051Z,31.00
2019-02-21T21:48:19.211Z,28.50
2019-02-21T21:50:46.330Z,28.83
2019-02-21T21:53:13.410Z,29.03
2019-02-21T21:55:40.491Z,29.63
2019-02-21T21:58:07.653Z,27.83
2019-02-21T22:00:34.711Z,28.40
2019-02-21T22:03:02.010Z,27.60
2019-02-21T22:05:29.151Z,28.70
2019-02-21T22:07:56.450Z,29.43
2019-02-21T22:10:23.491Z,28.20
2019-02-21T22:12:50.671Z,28.37
2019-02-21T22:15:19.870Z,26.23
2019-02-21T22:17:46.970Z,26.67
2019-02-21T22:20:14.050Z,27.20
2019-02-21T22:22:41.130Z,26.27
2019-02-21T22:25:11.277Z,26.00
2019-02-21T22:27:38.371Z,24.47
2019-02-21T22:30:15.712Z,25.27
2019-02-21T22:32:43.006Z,25.43
2019-02-21T22:35:10.470Z,25.20
2019-02-21T22:37:37.610Z,24.73
2019-02-21T22:40:18.993Z,24.57
2019-02-21T22:42:46.091Z,24.80
2019-02-21T22:45:13.211Z,24.33
2019-02-21T22:47:40.271Z,23.07
2019-02-21T22:50:14.490Z,23.90
2019-02-21T22:52:41.591Z,22.80
2019-02-21T22:55:10.142Z,23.47
2019-02-21T22:57:37.770Z,23.50
2019-02-21T23:00:56.151Z,23.07
2019-02-21T23:03:34.571Z,23.10
2019-02-21T23:06:36.190Z,21.93
2019-02-21T23:09:08.276Z,22.57
2019-02-21T23:11:35.331Z,22.70
2019-02-21T23:14:02.450Z,22.33
2019-02-21T23:16:29.620Z,22.90
2019-02-21T23:18:56.791Z,22.90
2019-02-21T23:21:23.890Z,23.07
2019-02-21T23:23:51.272Z,21.60
2019-02-21T23:26:18.372Z,21.17
2019-02-21T23:28:45.410Z,20.13
2019-02-21T23:31:12.550Z,19.80
2019-02-21T23:33:44.668Z,21.77
2019-02-21T23:36:11.805Z,21.37
2019-02-21T23:38:38.910Z,21.20
2019-02-21T23:41:06.051Z,21.47
2019-02-21T23:43:33.251Z,21.13
2019-02-21T23:46:00.513Z,21.37
2019-02-21T23:48:27.655Z,20.17
2019-02-21T23:50:54.792Z,21.13
2019-02-21T23:53:21.871Z,20.77
2019-02-21T23:55:49.033Z,20.10
2019-02-21T23:58:16.111Z,20.73
